Saratov, Russia
Current Conditions -  °F | °C
As of 10:30 AM on Thursday 23 Oct 2014 (Local Time) from UWSS Reporting Station
Overcast Overcast  
Wind Chill: 12°   Ceiling: 2400
Heat Index: 25°   Visibility: 6mi
Dew Point: 14°   Wind: 16mph
Humidity: 64%   Direction: 300°WNW
Pressure: 30.03"   Gusts: 22mph
Location:  51.57°N, 46.03°E
Report Text: UWSS 230730Z 30007G10MPS 9999 OVC024CB M04/M10 Q1017 300///60NOSIG RMK QFE749
Loading
Personal Weather Stations






























Interactive Weather Map
Tropical Storm Tracking
New forecast layout! Learn more

10-Day Weather Forecast

Advertisements
Track Severe Weather on mobile